Nearby METAR Reports

 

KPBH - Phillips, Wisconsin, USA
Distance from station: SE 13mi, 21km
Updated: 05/29/2020 11:35am
Overcast
Overcast
 Wind from NW
Wind: NW 12 mph , 19 km/h, Gust: 16 mph , 26 km/h
Temperature: 54°F , 12°C
Dew Point: 45°F , 7°C
Humidity: 72%
Barometer: 30.02 inHg , 1016.6 hPa
Clouds: Overcast
Visibility: 10 miles , 16 km
Cloud details: Mostly cloudy 2900 ft
Overcast 3800 ft
2020/05/29 16:35 KPBH 291635Z AUTO 31010G14KT 10SM BKN029 OVC038 12/07 A3002 RMK AO2 T01190070
KRCX - Ladysmith/Rusk, Wisconsin, USA
Distance from station: SW 29mi, 46km
Updated: 05/29/2020 11:35am
Overcast
Overcast
 Wind from NW
Wind: NW 14 mph , 22 km/h, Gust: 25 mph , 41 km/h
Temperature: 57°F , 14°C
Dew Point: 46°F , 8°C
Humidity: 67%
Barometer: 30.06 inHg , 1017.9 hPa
Clouds: Overcast
Visibility: 10 miles , 16 km
Cloud details: Mostly cloudy 2700 ft
Overcast 3300 ft
2020/05/29 16:35 KRCX 291635Z AUTO 32012G22KT 10SM BKN027 OVC033 14/08 A3006 RMK AO2 T01350078
 
KD25 - Manitowish Water, Wisconsin, USA
Distance from station: ENE 41mi, 66km
Updated: 05/29/2020 11:35am
Overcast
Overcast
 Wind from WNW
Wind: WNW 12 mph , 19 km/h, Gust: 16 mph , 26 km/h
Temperature: 52°F , 11°C
Dew Point: 48°F , 9°C
Humidity: 88%
Barometer: 30.00 inHg , 1015.9 hPa
Clouds: Overcast
Visibility: 7 miles , 11 km
Cloud details: Overcast 1400 ft
2020/05/29 16:35 KD25 291635Z AUTO 29010G14KT 7SM OVC014 11/09 A3000 RMK AO2 T01070087
KHYR - Hayward, Wisconsin, USA
Distance from station: WNW 42mi, 68km
Updated: 05/29/2020 10:53am
Overcast
Overcast
 Wind from NNW
Wind: NNW 9 mph , 15 km/h
Temperature: 54°F , 12°C
Dew Point: 45°F , 7°C
Humidity: 72%
Barometer: 30.05 inHg , 1017.6 hPa
Clouds: Overcast
Visibility: 10 miles , 16 km
Cloud details: Overcast 2300 ft
2020/05/29 15:53 KHYR 291553Z AUTO 33008KT 290V360 10SM OVC023 12/07 A3005 RMK AO2 RAB1458E10 SLP179 P0000 T01220067
 
KARV - Minocqua/Woodruf, Wisconsin, USA
Distance from station: E 44mi, 71km
Updated: 05/29/2020 11:35am
Overcast
Overcast
 Wind from NNW
Wind: NNW 12 mph , 19 km/h, Gust: 17 mph , 28 km/h
Temperature: 57°F , 14°C
Dew Point: 48°F , 9°C
Humidity: 72%
Barometer: 29.99 inHg , 1015.6 hPa
Clouds: Overcast
Visibility: 10 miles , 16 km
Cloud details: Mostly cloudy 2400 ft
Mostly cloudy 3000 ft
Overcast 6000 ft
2020/05/29 16:35 KARV 291635Z AUTO 33010G15KT 10SM BKN024 BKN030 OVC060 14/09 A2999 RMK AO2 T01380092
KTKV - Tomahawk Regnl, Wisconsin, USA
Distance from station: ESE 46mi, 74km
Updated: 05/29/2020 11:35am
Overcast
Overcast
 Wind from NW
Wind: NW 5 mph , 7 km/h
Temperature: 55°F , 13°C
Dew Point: 43°F , 6°C
Humidity: 63%
Barometer: 30.00 inHg , 1015.9 hPa
Clouds: Overcast
Visibility: 10 miles , 16 km
Cloud details: Partly cloudy 3500 ft
Overcast 5000 ft
2020/05/29 16:35 KTKV 291635Z AUTO 31004KT 10SM SCT035 OVC050 13/06 A3000 RMK AO2 T01250058 PWINO